createdAt,value
2019-02-08T00:01:48.702Z,48.20
2019-02-08T00:04:18.527Z,53.40
2019-02-08T00:06:48.343Z,54.63
2019-02-08T00:09:18.145Z,51.83
2019-02-08T00:11:48.189Z,52.17
2019-02-08T00:14:18.080Z,57.53
2019-02-08T00:16:47.936Z,53.23
2019-02-08T00:19:17.737Z,51.57
2019-02-08T00:21:47.593Z,52.07
2019-02-08T00:24:17.475Z,48.90
2019-02-08T00:26:47.485Z,51.23
2019-02-08T00:29:17.214Z,51.43
2019-02-08T00:31:47.002Z,52.77
2019-02-08T00:34:16.750Z,47.70
2019-02-08T00:36:47.627Z,49.53
2019-02-08T00:39:17.686Z,45.97
2019-02-08T00:41:47.804Z,50.27
2019-02-08T00:44:17.670Z,52.60
2019-02-08T00:46:47.439Z,51.47
2019-02-08T00:49:17.262Z,46.63
2019-02-08T00:51:47.098Z,48.17
2019-02-08T00:54:16.817Z,50.47
2019-02-08T00:56:46.578Z,47.37
2019-02-08T00:59:16.317Z,54.90
2019-02-08T01:01:46.223Z,55.60
2019-02-08T01:04:16.054Z,47.97
2019-02-08T01:06:45.891Z,55.00
2019-02-08T01:09:15.595Z,52.60
2019-02-08T01:11:45.294Z,56.23
2019-02-08T01:14:14.947Z,57.70
2019-02-08T01:16:44.725Z,54.30
2019-02-08T01:19:14.628Z,51.03
2019-02-08T01:21:44.480Z,57.03
2019-02-08T01:24:14.252Z,57.87
2019-02-08T01:26:43.959Z,57.30
2019-02-08T01:29:13.718Z,50.43
2019-02-08T01:31:43.474Z,53.17
2019-02-08T01:34:13.217Z,51.97
2019-02-08T01:36:42.969Z,51.53
2019-02-08T01:39:12.743Z,57.60
2019-02-08T01:41:42.509Z,55.43
2019-02-08T01:44:12.292Z,56.57
2019-02-08T01:46:42.073Z,57.20
2019-02-08T01:49:11.817Z,54.90
2019-02-08T01:51:41.624Z,54.60
2019-02-08T01:54:11.317Z,58.07
2019-02-08T01:56:40.999Z,58.83
2019-02-08T01:59:10.754Z,58.33
2019-02-08T02:01:40.509Z,60.93
2019-02-08T02:04:10.216Z,52.10
2019-02-08T02:06:40.065Z,53.73
2019-02-08T02:09:10.385Z,61.40
2019-02-08T02:11:40.157Z,54.40
2019-02-08T02:14:09.959Z,55.67
2019-02-08T02:16:39.804Z,56.07
2019-02-08T02:19:09.485Z,59.17
2019-02-08T02:21:39.274Z,58.97
2019-02-08T02:24:09.053Z,54.80
2019-02-08T02:26:38.859Z,53.47
2019-02-08T02:29:08.590Z,51.57
2019-02-08T02:31:38.296Z,57.93
2019-02-08T02:34:08.157Z,54.33
2019-02-08T02:36:37.902Z,55.30
2019-02-08T02:39:09.869Z,51.50
2019-02-08T02:41:39.674Z,53.00
2019-02-08T02:44:09.509Z,54.33
2019-02-08T02:46:39.214Z,49.20
2019-02-08T02:49:09.246Z,51.10
2019-02-08T02:51:38.955Z,54.90
2019-02-08T02:54:08.731Z,50.60
2019-02-08T02:56:38.518Z,51.60
2019-02-08T02:59:08.287Z,52.53
2019-02-08T03:01:38.442Z,51.43
2019-02-08T03:04:08.287Z,51.53
2019-02-08T03:06:38.059Z,52.33
2019-02-08T03:09:10.039Z,54.80
2019-02-08T03:11:39.862Z,52.03
2019-02-08T03:14:09.567Z,57.67
2019-02-08T03:16:39.270Z,50.37
2019-02-08T03:19:09.022Z,53.77
2019-02-08T03:21:38.811Z,50.30
2019-02-08T03:24:13.107Z,49.03
2019-02-08T03:26:40.063Z,49.10
2019-02-08T03:29:09.906Z,48.17
2019-02-08T03:31:39.737Z,48.93
2019-02-08T03:34:09.548Z,45.50
2019-02-08T03:36:39.364Z,48.90
2019-02-08T03:39:09.646Z,40.70
2019-02-08T03:41:39.472Z,47.53
2019-02-08T03:44:09.381Z,45.60
2019-02-08T03:46:39.083Z,42.87
2019-02-08T03:49:09.198Z,46.10
2019-02-08T03:51:38.990Z,49.17
2019-02-08T03:54:08.754Z,47.57
2019-02-08T03:56:38.460Z,47.97
2019-02-08T03:59:08.223Z,50.33
2019-02-08T04:01:38.091Z,48.33
2019-02-08T04:04:16.226Z,53.23
2019-02-08T04:06:45.975Z,67.70
2019-02-08T04:09:15.685Z,56.17
2019-02-08T04:11:45.452Z,48.70
2019-02-08T04:14:15.116Z,48.87
2019-02-08T04:16:44.923Z,51.63
2019-02-08T04:19:14.797Z,54.80
2019-02-08T04:21:44.994Z,50.70
2019-02-08T04:24:14.724Z,53.77
2019-02-08T04:26:44.453Z,53.03
2019-02-08T04:29:14.500Z,53.93
2019-02-08T04:31:44.271Z,52.40
2019-02-08T04:34:13.929Z,53.47
2019-02-08T04:36:43.730Z,53.63
2019-02-08T04:39:13.690Z,52.53
2019-02-08T04:41:43.449Z,50.33
2019-02-08T04:44:13.165Z,49.90
2019-02-08T04:46:42.889Z,47.30
2019-02-08T04:49:12.626Z,45.73
2019-02-08T04:51:42.312Z,45.57
2019-02-08T04:54:12.105Z,46.53
2019-02-08T04:56:41.814Z,48.20
2019-02-08T04:59:11.527Z,49.20
2019-02-08T05:01:41.221Z,45.77
2019-02-08T05:04:11.005Z,47.13
2019-02-08T05:06:40.738Z,43.70
2019-02-08T05:09:10.492Z,46.07
2019-02-08T05:11:40.264Z,46.80
2019-02-08T05:14:10.201Z,40.73
2019-02-08T05:16:40.300Z,40.20
2019-02-08T05:19:09.992Z,45.33
2019-02-08T05:21:39.812Z,41.03
2019-02-08T05:24:09.594Z,39.80
2019-02-08T05:26:39.281Z,43.83
2019-02-08T05:29:09.041Z,40.03
2019-02-08T05:31:38.704Z,38.37
2019-02-08T05:34:08.473Z,42.30
2019-02-08T05:36:38.202Z,39.60
2019-02-08T05:39:10.872Z,36.10
2019-02-08T05:41:40.657Z,36.90
2019-02-08T05:44:10.443Z,33.83
2019-02-08T05:46:40.243Z,34.07
2019-02-08T05:49:10.050Z,28.73
2019-02-08T05:51:39.913Z,29.07
2019-02-08T05:54:09.666Z,32.50
2019-02-08T05:56:39.405Z,26.60
2019-02-08T05:59:09.332Z,29.17
2019-02-08T06:01:39.089Z,28.20
2019-02-08T06:04:08.825Z,25.03
2019-02-08T06:06:38.602Z,25.90
2019-02-08T06:09:10.155Z,22.13
2019-02-08T06:11:39.833Z,22.30
2019-02-08T06:14:09.902Z,22.33
2019-02-08T06:16:39.700Z,19.87
2019-02-08T06:19:09.380Z,24.53
2019-02-08T06:21:39.077Z,19.00
2019-02-08T06:24:08.849Z,20.57
2019-02-08T06:26:38.730Z,19.03
2019-02-08T06:29:08.485Z,19.03
2019-02-08T06:31:38.245Z,16.67
2019-02-08T06:34:08.047Z,16.90
2019-02-08T06:36:37.806Z,16.20
2019-02-08T06:39:09.904Z,16.70
2019-02-08T06:41:39.565Z,14.33
2019-02-08T06:44:09.370Z,20.40
2019-02-08T06:46:39.107Z,17.43
2019-02-08T06:49:08.828Z,21.67
2019-02-08T06:51:38.558Z,15.67
2019-02-08T06:54:08.347Z,15.27
2019-02-08T06:56:57.916Z,17.77
2019-02-08T06:59:34.642Z,18.43
2019-02-08T07:02:29.588Z,15.07
2019-02-08T07:05:30.248Z,16.17
2019-02-08T07:08:24.941Z,15.53
2019-02-08T07:11:03.474Z,17.70
2019-02-08T07:13:52.117Z,39.53
2019-02-08T07:16:29.885Z,16.13
2019-02-08T07:19:09.114Z,15.67
2019-02-08T07:21:47.592Z,16.97
2019-02-08T07:24:34.792Z,18.90
2019-02-08T07:27:29.445Z,14.13
2019-02-08T07:30:14.753Z,16.03
2019-02-08T07:33:01.006Z,13.80
2019-02-08T07:35:49.557Z,13.63
2019-02-08T07:38:34.932Z,14.27
2019-02-08T07:41:24.513Z,11.83
2019-02-08T07:44:13.772Z,13.93
2019-02-08T07:47:09.919Z,13.70
2019-02-08T07:49:58.669Z,12.33
2019-02-08T07:52:45.375Z,11.90
2019-02-08T07:55:43.993Z,12.17
2019-02-08T07:58:29.295Z,14.33
2019-02-08T08:01:21.193Z,12.77
2019-02-08T08:04:09.856Z,11.93
2019-02-08T08:06:56.229Z,11.47
2019-02-08T08:09:50.642Z,11.97
2019-02-08T08:12:51.158Z,14.07
2019-02-08T08:15:47.181Z,12.07
2019-02-08T08:18:39.461Z,10.53
2019-02-08T08:21:37.096Z,10.57
2019-02-08T08:24:14.719Z,11.30
2019-02-08T08:27:02.390Z,10.63
2019-02-08T08:29:46.728Z,11.57
2019-02-08T08:32:29.211Z,12.93
2019-02-08T08:35:36.840Z,11.10
2019-02-08T08:38:47.273Z,11.27
2019-02-08T08:42:11.670Z,15.97
2019-02-08T08:45:06.857Z,10.83
2019-02-08T08:48:32.697Z,13.33
2019-02-08T08:51:40.501Z,11.13
2019-02-08T08:54:46.634Z,12.13
2019-02-08T08:57:51.456Z,16.03
2019-02-08T09:01:00.844Z,14.43
2019-02-08T09:04:04.007Z,13.23
2019-02-08T09:07:22.488Z,11.17
2019-02-08T09:10:21.061Z,11.13
2019-02-08T09:13:05.025Z,12.03
2019-02-08T09:16:11.185Z,11.37
2019-02-08T09:19:12.331Z,12.47
2019-02-08T09:22:33.460Z,12.93
2019-02-08T09:25:34.180Z,11.73
2019-02-08T09:28:27.589Z,9.13
2019-02-08T09:31:25.486Z,10.63
2019-02-08T09:34:47.075Z,9.77
2019-02-08T09:37:39.883Z,8.97
2019-02-08T09:40:53.680Z,9.60
2019-02-08T09:43:55.145Z,10.70
2019-02-08T09:47:04.321Z,11.83
2019-02-08T09:50:14.632Z,12.27
2019-02-08T09:53:25.273Z,12.60
2019-02-08T09:56:38.539Z,12.47
2019-02-08T09:59:30.504Z,11.80
2019-02-08T10:02:42.140Z,10.60
2019-02-08T10:05:57.289Z,12.33
2019-02-08T10:09:02.069Z,12.67
2019-02-08T10:12:14.224Z,12.27
2019-02-08T10:15:19.237Z,13.47
2019-02-08T10:18:07.594Z,13.80
2019-02-08T10:21:33.970Z,10.00
2019-02-08T10:24:41.649Z,11.43
2019-02-08T10:27:54.598Z,9.67
2019-02-08T10:31:10.148Z,8.90
2019-02-08T10:34:40.133Z,11.37
2019-02-08T10:37:38.457Z,8.80
2019-02-08T10:40:38.625Z,7.57
2019-02-08T10:43:57.536Z,9.93
2019-02-08T10:47:05.960Z,8.57
2019-02-08T10:50:12.038Z,11.20
2019-02-08T10:53:12.477Z,9.77
2019-02-08T10:56:19.578Z,9.73
2019-02-08T10:59:21.237Z,9.27
2019-02-08T11:02:29.953Z,9.87
2019-02-08T11:05:37.761Z,10.13
2019-02-08T11:08:45.186Z,8.00
2019-02-08T11:11:48.356Z,8.57
2019-02-08T11:15:02.253Z,8.57
2019-02-08T11:18:24.030Z,6.63
2019-02-08T11:20:53.813Z,9.87
2019-02-08T11:23:23.544Z,9.63
2019-02-08T11:25:53.301Z,9.97
2019-02-08T11:28:23.029Z,8.03
2019-02-08T11:30:52.804Z,8.53
2019-02-08T11:33:22.629Z,8.20
2019-02-08T11:35:52.379Z,6.97
2019-02-08T11:38:22.189Z,6.03
2019-02-08T11:40:51.861Z,7.20
2019-02-08T11:43:21.517Z,4.83
2019-02-08T11:45:52.324Z,9.05
2019-02-08T11:48:21.997Z,6.67
2019-02-08T11:50:51.661Z,9.17
2019-02-08T11:53:21.380Z,7.95
2019-02-08T11:55:51.187Z,5.00
2019-02-08T11:58:20.928Z,8.10
2019-02-08T12:00:53.578Z,11.15
2019-02-08T12:03:23.326Z,7.80
2019-02-08T12:05:53.044Z,8.03
2019-02-08T12:08:22.912Z,5.58
2019-02-08T12:10:52.657Z,5.97
2019-02-08T12:13:22.385Z,7.08
2019-02-08T12:15:52.173Z,5.33
2019-02-08T12:18:21.973Z,7.47
2019-02-08T12:20:52.013Z,7.10
2019-02-08T12:23:21.632Z,5.25
2019-02-08T12:25:51.433Z,4.65
2019-02-08T12:28:21.216Z,7.35
2019-02-08T12:30:50.948Z,5.50
2019-02-08T12:33:20.674Z,7.40
2019-02-08T12:35:50.586Z,5.65
2019-02-08T12:38:20.335Z,5.92
2019-02-08T12:40:50.089Z,6.08
2019-02-08T12:43:19.933Z,5.28
2019-02-08T12:45:49.714Z,6.12
2019-02-08T12:48:19.394Z,7.47
2019-02-08T12:50:49.143Z,6.00
2019-02-08T12:53:18.857Z,4.97
2019-02-08T12:55:48.508Z,5.15
2019-02-08T12:58:18.217Z,5.55
2019-02-08T13:00:47.928Z,7.92
2019-02-08T13:03:17.604Z,5.45
2019-02-08T13:05:47.412Z,5.37
2019-02-08T13:08:17.139Z,5.62
2019-02-08T13:10:46.942Z,4.08
2019-02-08T13:13:16.649Z,6.55
2019-02-08T13:15:46.463Z,5.62
2019-02-08T13:18:16.093Z,7.37
2019-02-08T13:20:45.856Z,5.30
2019-02-08T13:23:15.622Z,5.03
2019-02-08T13:25:45.501Z,9.48
2019-02-08T13:28:15.177Z,6.67
2019-02-08T13:30:44.929Z,4.75
2019-02-08T13:33:14.698Z,5.28
2019-02-08T13:35:44.533Z,4.42
2019-02-08T13:38:14.167Z,3.15
2019-02-08T13:40:44.214Z,4.28
2019-02-08T13:43:13.965Z,2.85
2019-02-08T13:45:43.696Z,4.40
2019-02-08T13:48:13.517Z,4.25
2019-02-08T13:50:43.351Z,4.80
2019-02-08T13:53:13.009Z,7.10
2019-02-08T13:55:42.709Z,6.15
2019-02-08T13:58:12.517Z,5.62
2019-02-08T14:00:42.475Z,5.27
2019-02-08T14:03:12.121Z,4.87
2019-02-08T14:05:41.865Z,4.67
2019-02-08T14:08:11.686Z,7.10
2019-02-08T14:10:41.518Z,2.83
2019-02-08T14:13:11.335Z,6.13
2019-02-08T14:15:41.169Z,5.93
2019-02-08T14:18:10.889Z,5.70
2019-02-08T14:20:40.677Z,6.23
2019-02-08T14:23:10.477Z,5.80
2019-02-08T14:25:40.193Z,8.07
2019-02-08T14:28:10.000Z,5.93
2019-02-08T14:30:41.989Z,7.20
2019-02-08T14:33:11.784Z,2.70
2019-02-08T14:35:41.486Z,3.67
2019-02-08T14:38:15.371Z,3.33
2019-02-08T14:40:45.146Z,5.03
2019-02-08T14:43:14.913Z,4.20
2019-02-08T14:45:44.601Z,7.73
2019-02-08T14:48:15.374Z,4.13
2019-02-08T14:50:45.079Z,3.80
2019-02-08T14:53:14.891Z,6.33
2019-02-08T14:55:44.693Z,4.33
2019-02-08T14:58:14.537Z,8.20
2019-02-08T15:00:44.321Z,5.40
2019-02-08T15:03:14.109Z,3.70
2019-02-08T15:05:43.784Z,7.90
2019-02-08T15:08:13.521Z,4.03
2019-02-08T15:10:45.728Z,5.10
2019-02-08T15:13:15.458Z,5.00
2019-02-08T15:15:45.241Z,5.93
2019-02-08T15:18:15.042Z,6.70
2019-02-08T15:20:44.844Z,6.27
2019-02-08T15:23:14.633Z,4.83
2019-02-08T15:25:46.426Z,3.30
2019-02-08T15:28:16.150Z,9.77
2019-02-08T15:30:45.989Z,4.60
2019-02-08T15:33:15.732Z,6.50
2019-02-08T15:35:45.517Z,5.73
2019-02-08T15:38:15.211Z,7.87
2019-02-08T15:40:47.602Z,3.83
2019-02-08T15:43:18.753Z,3.63
2019-02-08T15:45:52.080Z,6.33
2019-02-08T15:48:21.798Z,4.10
2019-02-08T15:50:51.534Z,3.93
2019-02-08T15:53:21.333Z,7.77
2019-02-08T15:55:53.758Z,17.07
2019-02-08T15:58:23.469Z,19.13
2019-02-08T16:00:53.354Z,21.10
2019-02-08T16:03:23.112Z,22.63
2019-02-08T16:05:52.878Z,27.37
2019-02-08T16:08:22.615Z,26.90
2019-02-08T16:10:52.364Z,31.17
2019-02-08T16:13:22.067Z,34.37
2019-02-08T16:15:51.825Z,38.53
2019-02-08T16:18:21.624Z,32.73
2019-02-08T16:20:51.392Z,40.23
2019-02-08T16:23:21.152Z,35.30
2019-02-08T16:25:50.926Z,41.30
2019-02-08T16:28:20.675Z,38.60
2019-02-08T16:30:50.519Z,39.83
2019-02-08T16:33:20.227Z,35.63
2019-02-08T16:35:50.021Z,40.53
2019-02-08T16:38:19.817Z,39.77
2019-02-08T16:40:49.638Z,40.10
2019-02-08T16:43:19.612Z,37.33
2019-02-08T16:45:49.500Z,36.33
2019-02-08T16:48:20.156Z,40.60
2019-02-08T16:50:49.977Z,37.93
2019-02-08T16:53:19.772Z,41.03
2019-02-08T16:55:49.623Z,36.83
2019-02-08T16:58:19.649Z,41.13
2019-02-08T17:00:49.419Z,47.40
2019-02-08T17:03:19.165Z,40.77
2019-02-08T17:05:49.082Z,38.17
2019-02-08T17:08:18.983Z,36.17
2019-02-08T17:10:48.713Z,36.53
2019-02-08T17:13:18.536Z,42.00
2019-02-08T17:15:48.358Z,39.17
2019-02-08T17:18:18.391Z,37.37
2019-02-08T17:20:48.849Z,38.13
2019-02-08T17:23:18.731Z,38.20
2019-02-08T17:25:48.525Z,39.10
2019-02-08T17:28:18.274Z,37.30
2019-02-08T17:30:48.040Z,38.47
2019-02-08T17:33:17.872Z,39.90
2019-02-08T17:35:47.702Z,41.57
2019-02-08T17:38:17.389Z,38.63
2019-02-08T17:40:47.948Z,39.27
2019-02-08T17:43:17.755Z,39.80
2019-02-08T17:45:47.610Z,39.77
2019-02-08T17:48:17.429Z,44.47
2019-02-08T17:50:47.167Z,41.60
2019-02-08T17:53:16.961Z,42.63
2019-02-08T17:55:48.308Z,45.27
2019-02-08T17:58:18.193Z,42.13
2019-02-08T18:00:55.796Z,43.83
2019-02-08T18:03:25.643Z,45.60
2019-02-08T18:05:55.303Z,41.67
2019-02-08T18:08:25.334Z,41.67
2019-02-08T18:10:55.014Z,45.60
2019-02-08T18:13:24.751Z,38.30
2019-02-08T18:15:54.494Z,43.37
2019-02-08T18:18:25.849Z,50.77
2019-02-08T18:21:07.766Z,44.40
2019-02-08T18:23:38.025Z,40.60
2019-02-08T18:26:07.897Z,43.67
2019-02-08T18:28:37.690Z,44.73
2019-02-08T18:31:07.403Z,39.70
2019-02-08T18:33:37.722Z,38.67
2019-02-08T18:36:07.527Z,34.63
2019-02-08T18:38:37.324Z,46.70
2019-02-08T18:41:07.103Z,43.43
2019-02-08T18:43:36.851Z,42.00
2019-02-08T18:46:06.714Z,40.00
2019-02-08T18:48:36.394Z,36.83
2019-02-08T18:51:06.258Z,39.20
2019-02-08T18:53:35.985Z,41.17
2019-02-08T18:56:05.807Z,41.67
2019-02-08T18:58:35.610Z,43.27
2019-02-08T19:01:06.426Z,53.03
2019-02-08T19:03:36.166Z,45.80
2019-02-08T19:06:05.982Z,44.30
2019-02-08T19:08:35.782Z,44.17
2019-02-08T19:11:05.654Z,42.37
2019-02-08T19:13:35.370Z,43.83
2019-02-08T19:16:05.589Z,43.20
2019-02-08T19:18:35.365Z,38.73
2019-02-08T19:21:05.194Z,41.50
2019-02-08T19:23:34.905Z,50.37
2019-02-08T19:26:04.680Z,43.53
2019-02-08T19:28:36.412Z,43.13
2019-02-08T19:31:06.257Z,48.10
2019-02-08T19:33:35.982Z,43.27
2019-02-08T19:36:06.082Z,45.33
2019-02-08T19:38:36.114Z,45.03
2019-02-08T19:41:05.912Z,42.17
2019-02-08T19:43:35.654Z,45.13
2019-02-08T19:46:05.805Z,46.70
2019-02-08T19:48:35.449Z,42.57
2019-02-08T19:51:05.234Z,41.90
2019-02-08T19:53:34.989Z,41.63
2019-02-08T19:56:05.133Z,45.47
2019-02-08T19:58:35.051Z,45.47
2019-02-08T20:01:05.610Z,41.57
2019-02-08T20:03:35.489Z,46.33
2019-02-08T20:06:05.373Z,47.13
2019-02-08T20:08:35.049Z,48.57
2019-02-08T20:11:04.807Z,54.57
2019-02-08T20:13:34.534Z,61.13
2019-02-08T20:16:04.277Z,52.03
2019-02-08T20:18:34.056Z,64.87
2019-02-08T20:21:03.750Z,60.63
2019-02-08T20:23:33.483Z,78.27
2019-02-08T20:26:03.434Z,60.73
2019-02-08T20:28:33.179Z,56.00
2019-02-08T20:31:02.918Z,55.60
2019-02-08T20:33:32.649Z,47.33
2019-02-08T20:36:02.395Z,54.33
2019-02-08T20:38:32.212Z,51.97
2019-02-08T20:41:02.044Z,55.17
2019-02-08T20:43:31.841Z,54.57
2019-02-08T20:46:01.622Z,57.10
2019-02-08T20:48:31.360Z,49.80
2019-02-08T20:51:01.163Z,48.33
2019-02-08T20:53:30.945Z,54.30
2019-02-08T20:56:00.808Z,43.57
2019-02-08T20:58:31.294Z,44.67
2019-02-08T21:01:01.377Z,44.70
2019-02-08T21:03:30.992Z,43.00
2019-02-08T21:06:00.789Z,43.40
2019-02-08T21:08:30.818Z,40.60
2019-02-08T21:11:00.502Z,46.50
2019-02-08T21:13:30.250Z,43.13
2019-02-08T21:15:59.926Z,45.50
2019-02-08T21:18:29.565Z,43.30
2019-02-08T21:20:59.314Z,44.50
2019-02-08T21:23:29.058Z,41.83
2019-02-08T21:25:58.805Z,41.30
2019-02-08T21:28:28.560Z,41.20
2019-02-08T21:30:58.329Z,45.57
2019-02-08T21:33:28.062Z,49.73
2019-02-08T21:35:57.837Z,48.57
2019-02-08T21:38:27.649Z,43.47
2019-02-08T21:40:57.374Z,44.50
2019-02-08T21:43:27.036Z,47.30
2019-02-08T21:45:56.797Z,39.43
2019-02-08T21:48:26.509Z,44.40
2019-02-08T21:50:56.339Z,41.07
2019-02-08T21:53:25.993Z,44.63
2019-02-08T21:55:55.799Z,43.17
2019-02-08T21:58:25.501Z,42.53
2019-02-08T22:00:55.283Z,45.00
2019-02-08T22:03:25.083Z,44.87
2019-02-08T22:06:00.626Z,47.10
2019-02-08T22:08:30.321Z,45.80
2019-02-08T22:11:00.088Z,51.47
2019-02-08T22:13:29.722Z,48.10
2019-02-08T22:15:59.646Z,46.87
2019-02-08T22:18:29.372Z,49.17
2019-02-08T22:20:59.049Z,52.67
2019-02-08T22:23:28.884Z,46.03
2019-02-08T22:25:58.578Z,48.13
2019-02-08T22:28:28.274Z,50.33
2019-02-08T22:30:58.131Z,47.23
2019-02-08T22:33:28.082Z,48.77
2019-02-08T22:35:57.756Z,50.17
2019-02-08T22:38:27.433Z,52.03
2019-02-08T22:40:57.101Z,55.17
2019-02-08T22:43:26.821Z,56.27
2019-02-08T22:45:56.668Z,57.50
2019-02-08T22:48:26.445Z,53.73
2019-02-08T22:50:56.238Z,52.07
2019-02-08T22:53:26.029Z,54.87
2019-02-08T22:55:55.743Z,57.87
2019-02-08T22:58:25.605Z,55.47
2019-02-08T23:01:26.249Z,48.87
2019-02-08T23:03:57.116Z,52.23
2019-02-08T23:06:26.993Z,50.80
2019-02-08T23:08:56.770Z,50.83
2019-02-08T23:11:27.878Z,52.07
2019-02-08T23:13:57.605Z,52.60
2019-02-08T23:16:27.506Z,49.97
2019-02-08T23:18:57.269Z,59.57
2019-02-08T23:21:26.969Z,53.80
2019-02-08T23:23:56.774Z,56.97
2019-02-08T23:26:26.575Z,54.80
2019-02-08T23:28:56.357Z,52.13
2019-02-08T23:31:26.228Z,52.37
2019-02-08T23:33:55.971Z,53.87
2019-02-08T23:36:25.686Z,52.77
2019-02-08T23:38:55.386Z,51.80
2019-02-08T23:41:25.254Z,52.70
2019-02-08T23:43:55.021Z,51.73
2019-02-08T23:46:24.784Z,53.40
2019-02-08T23:48:54.521Z,53.93
2019-02-08T23:51:24.325Z,52.57
2019-02-08T23:53:54.001Z,48.97
2019-02-08T23:56:23.797Z,47.67
2019-02-08T23:58:53.474Z,50.17
